Time;durP1;ratioP1;P1;durP2;ratioP2;P2;SDS_P1;SDS_P2;PMS_P1;PMS_P2;Temp;Humidity;BMP_temperature;BMP_pressure;BME280_temperature;BME280_humidity;BME280_pressure;Samples;Min_cycle;Max_cycle;Signal;HPM_P1;HPM_P2
2024/04/02 00:01:08;;;;;;;18.40;3.20;;;;;;;11.45;85.50;99971.00;5068550;28;20056;-64
2024/04/02 00:03:35;;;;;;;14.15;3.38;;;;;;;11.19;86.38;99976.69;5035361;28;20048;-62
2024/04/02 00:06:02;;;;;;;23.33;3.55;;;;;;;11.31;86.19;99973.22;5068472;28;20533;-62
2024/04/02 00:08:29;;;;;;;18.33;2.83;;;;;;;11.37;85.29;99982.88;5039300;28;20779;-62
2024/04/02 00:11:03;;;;;;;12.35;2.42;;;;;;;11.10;86.84;99994.44;5049856;28;20060;-63
2024/04/02 00:13:30;;;;;;;17.40;3.13;;;;;;;11.39;86.20;99972.31;5068802;28;20056;-63
2024/04/02 00:15:57;;;;;;;13.05;2.92;;;;;;;11.51;85.07;99985.34;5058156;28;20049;-63
2024/04/02 00:18:24;;;;;;;15.65;2.75;;;;;;;11.31;85.99;99984.25;5031916;28;20045;-64
2024/04/02 00:20:51;;;;;;;13.77;2.67;;;;;;;11.33;86.01;99993.78;5065238;28;20052;-62
2024/04/02 00:23:18;;;;;;;19.23;3.13;;;;;;;11.15;86.98;99997.00;5051240;28;20060;-63
2024/04/02 00:25:47;;;;;;;17.80;3.35;;;;;;;11.46;86.57;99993.84;5068046;28;20052;-63
2024/04/02 00:28:16;;;;;;;19.92;3.78;;;;;;;11.39;85.10;99997.13;5064104;28;20527;-63
2024/04/02 00:30:43;;;;;;;14.40;3.08;;;;;;;11.30;85.75;99999.16;5046987;28;20598;-65
2024/04/02 00:33:09;;;;;;;21.38;3.40;;;;;;;11.36;86.06;99997.81;5048323;28;20059;-64
2024/04/02 00:35:35;;;;;;;17.80;3.40;;;;;;;11.19;86.65;100011.72;5048083;28;20053;-64
2024/04/02 00:38:02;;;;;;;19.50;3.33;;;;;;;11.31;86.41;100009.84;5049429;28;20071;-63
2024/04/02 00:40:28;;;;;;;15.98;3.40;;;;;;;11.08;87.22;100021.53;5067592;28;20702;-63
2024/04/02 00:43:04;;;;;;;13.27;3.22;;;;;;;11.22;86.71;100022.91;5064213;28;20049;-64
2024/04/02 00:45:36;;;;;;;22.55;3.47;;;;;;;11.27;86.11;100027.41;5030375;28;20060;-63
2024/04/02 00:48:03;;;;;;;21.67;3.17;;;;;;;11.29;86.67;100031.44;5039092;28;20049;-63
2024/04/02 00:50:30;;;;;;;17.67;3.17;;;;;;;11.21;86.35;100032.28;5065685;28;20055;-62
2024/04/02 00:52:57;;;;;;;17.48;3.67;;;;;;;11.30;86.73;100037.75;5050789;28;20451;-61
2024/04/02 00:55:23;;;;;;;21.08;3.50;;;;;;;11.12;86.67;100028.00;5050948;28;20041;-63
2024/04/02 00:57:50;;;;;;;23.98;4.13;;;;;;;11.19;86.94;100053.88;5052592;28;20052;-63
2024/04/02 01:00:16;;;;;;;18.85;3.47;;;;;;;11.11;86.89;100051.97;5067368;28;20182;-63
2024/04/02 01:02:43;;;;;;;22.13;3.53;;;;;;;11.06;87.40;100052.19;5050732;28;20052;-63
2024/04/02 01:05:09;;;;;;;16.73;3.42;;;;;;;10.97;87.21;100051.41;5066718;28;20059;-62
2024/04/02 01:07:39;;;;;;;23.75;3.90;;;;;;;10.88;87.75;100053.38;5056166;28;20582;-63
2024/04/02 01:10:06;;;;;;;19.98;3.08;;;;;;;10.89;88.10;100048.69;5035314;28;20691;-62
2024/04/02 01:12:34;;;;;;;18.60;3.42;;;;;;;10.93;87.21;100046.91;5049954;28;20229;-58
2024/04/02 01:15:01;;;;;;;19.75;4.20;;;;;;;11.28;86.78;100054.63;5047312;28;20048;-58
2024/04/02 01:17:27;;;;;;;17.13;3.13;;;;;;;11.44;85.43;100059.56;5056688;28;20059;-60
2024/04/02 01:19:53;;;;;;;18.50;3.13;;;;;;;11.20;85.36;100055.50;5066698;28;20055;-54
2024/04/02 01:22:20;;;;;;;20.58;3.92;;;;;;;11.03;85.78;100065.81;5066811;28;20514;-58
2024/04/02 01:24:52;;;;;;;22.75;3.53;;;;;;;11.15;86.48;100077.75;5038133;28;20055;-55
2024/04/02 01:27:18;;;;;;;19.73;3.33;;;;;;;11.09;86.36;100067.22;5066596;28;20409;-57
2024/04/02 01:29:45;;;;;;;20.38;3.58;;;;;;;10.87;86.99;100065.56;5066079;28;20486;-58
2024/04/02 01:32:11;;;;;;;18.73;2.70;;;;;;;10.77;86.78;100076.13;5046906;28;20512;-58
2024/04/02 01:34:38;;;;;;;17.65;3.60;;;;;;;11.15;86.66;100083.25;5028859;28;20583;-59
2024/04/02 01:37:04;;;;;;;23.33;3.30;;;;;;;11.07;85.84;100086.84;5055812;28;20044;-58
2024/04/02 01:39:31;;;;;;;16.15;3.22;;;;;;;10.92;86.03;100092.94;5031854;28;20057;-58
2024/04/02 01:41:57;;;;;;;21.90;3.50;;;;;;;10.88;85.99;100083.69;5030794;28;20527;-58
2024/04/02 01:44:23;;;;;;;23.95;3.63;;;;;;;10.91;85.62;100087.75;5046740;28;20419;-56
2024/04/02 01:46:50;;;;;;;16.92;3.83;;;;;;;10.88;85.45;100086.44;5032584;28;20049;-58
2024/04/02 01:49:16;;;;;;;18.23;2.80;;;;;;;10.81;84.78;100091.66;5023777;28;20056;-56
2024/04/02 01:51:44;;;;;;;20.33;3.28;;;;;;;10.74;85.22;100091.38;5034169;28;20045;-61
2024/04/02 01:54:10;;;;;;;23.85;3.85;;;;;;;10.70;85.50;100092.38;5051524;28;20571;-55
2024/04/02 01:56:36;;;;;;;21.73;3.78;;;;;;;10.80;85.22;100086.50;5066185;28;20059;-54
2024/04/02 01:59:03;;;;;;;19.52;3.28;;;;;;;10.80;84.74;100098.31;5066845;28;20055;-56
2024/04/02 02:01:29;;;;;;;17.67;2.50;;;;;;;10.63;85.33;100100.31;5049506;28;20040;-54
2024/04/02 02:03:55;;;;;;;18.58;3.08;;;;;;;10.57;85.91;100112.63;5066680;28;20060;-55
2024/04/02 02:06:22;;;;;;;20.83;4.07;;;;;;;10.66;85.66;100106.00;5066326;28;20052;-56
2024/04/02 02:08:49;;;;;;;23.90;3.35;;;;;;;10.72;85.24;100110.16;5053340;28;20044;-58
2024/04/02 02:11:16;;;;;;;29.65;4.05;;;;;;;10.83;84.96;100110.63;5058742;28;20056;-57
2024/04/02 02:13:42;;;;;;;16.45;2.83;;;;;;;10.72;84.71;100115.66;5066312;28;20053;-57
2024/04/02 02:16:08;;;;;;;21.85;3.65;;;;;;;10.66;84.90;100127.19;5049755;28;20053;-57
2024/04/02 02:18:34;;;;;;;21.50;3.10;;;;;;;10.95;84.51;100130.00;5066661;28;20416;-57
2024/04/02 02:21:01;;;;;;;20.00;4.10;;;;;;;10.86;84.10;100124.53;5066602;28;20511;-59
2024/04/02 02:23:27;;;;;;;25.45;3.38;;;;;;;10.63;84.42;100128.69;5066330;28;20059;-56
2024/04/02 02:25:56;;;;;;;21.40;3.28;;;;;;;10.71;85.24;100127.03;5055735;28;20041;-55
2024/04/02 02:28:22;;;;;;;16.23;3.22;;;;;;;10.72;84.61;100126.69;5046296;28;20049;-55
2024/04/02 02:30:49;;;;;;;23.05;3.60;;;;;;;10.52;85.42;100132.09;5029268;28;20515;-57
2024/04/02 02:33:15;;;;;;;24.35;2.75;;;;;;;10.38;86.01;100140.53;5046683;28;20865;-56
2024/04/02 02:35:41;;;;;;;21.17;4.22;;;;;;;10.54;85.73;100138.91;5052146;28;20076;-58
2024/04/02 02:38:08;;;;;;;19.52;3.72;;;;;;;10.58;85.23;100141.81;5066531;28;20424;-57
2024/04/02 02:40:34;;;;;;;20.52;3.63;;;;;;;10.49;85.67;100136.31;5066285;28;20628;-59
2024/04/02 02:43:00;;;;;;;29.23;4.18;;;;;;;10.42;86.39;100146.22;5059653;28;20416;-54
2024/04/02 02:45:27;;;;;;;19.75;3.20;;;;;;;10.36;86.55;100145.56;5046076;28;20068;-57
2024/04/02 02:47:53;;;;;;;25.98;4.15;;;;;;;10.35;87.07;100152.22;5029332;28;20063;-58
2024/04/02 02:50:19;;;;;;;26.45;3.72;;;;;;;10.28;87.79;100148.31;5048506;28;20041;-57
2024/04/02 02:52:46;;;;;;;18.08;2.80;;;;;;;10.33;87.46;100143.47;5033126;28;20064;-54
2024/04/02 02:55:13;;;;;;;18.40;3.15;;;;;;;10.42;86.71;100155.28;5049643;28;20062;-58
2024/04/02 02:57:39;;;;;;;27.55;3.65;;;;;;;10.47;86.94;100163.38;5033562;28;20049;-56
2024/04/02 03:00:07;;;;;;;19.88;3.42;;;;;;;10.52;86.01;100170.66;5033144;28;20053;-55
2024/04/02 03:02:36;;;;;;;19.13;4.15;;;;;;;10.50;85.98;100170.16;5049834;28;20056;-55
2024/04/02 03:05:03;;;;;;;25.23;3.70;;;;;;;10.62;85.79;100176.63;5062385;28;20071;-56
2024/04/02 03:07:29;;;;;;;16.92;2.85;;;;;;;10.47;85.64;100181.84;5069532;28;20420;-57
2024/04/02 03:09:56;;;;;;;24.58;3.67;;;;;;;10.30;86.23;100177.16;5060227;28;20048;-55
2024/04/02 03:12:23;;;;;;;18.70;3.15;;;;;;;10.16;86.89;100180.06;5033120;28;20040;-54
2024/04/02 03:14:49;;;;;;;23.55;3.20;;;;;;;10.28;87.02;100176.66;5045175;28;20145;-57
2024/04/02 03:17:15;;;;;;;18.88;3.15;;;;;;;10.37;86.65;100183.00;5069815;28;20052;-57
2024/04/02 03:19:42;;;;;;;18.63;3.40;;;;;;;10.45;86.11;100182.16;5052878;28;20053;-58
2024/04/02 03:22:08;;;;;;;16.17;2.63;;;;;;;10.31;86.57;100178.75;5069442;28;20063;-56
2024/04/02 03:24:35;;;;;;;23.08;3.65;;;;;;;10.42;86.18;100187.50;5052912;28;20048;-57
2024/04/02 03:27:02;;;;;;;23.98;3.95;;;;;;;10.38;85.92;100189.28;5069529;28;20067;-54
2024/04/02 03:29:28;;;;;;;16.08;3.05;;;;;;;10.23;86.23;100189.78;5069361;28;20052;-56
2024/04/02 03:31:54;;;;;;;25.00;4.13;;;;;;;10.39;85.96;100191.69;5063618;28;20675;-53
2024/04/02 03:34:23;;;;;;;19.48;2.75;;;;;;;10.38;85.70;100197.53;5049283;28;20425;-56
2024/04/02 03:36:49;;;;;;;20.10;3.15;;;;;;;10.13;86.26;100202.72;5049164;28;20049;-58
2024/04/02 03:39:16;;;;;;;16.48;3.30;;;;;;;10.32;85.77;100196.88;5043962;28;20056;-54
2024/04/02 03:41:42;;;;;;;18.02;3.22;;;;;;;10.42;84.99;100195.75;5067300;28;20059;-57
2024/04/02 03:44:08;;;;;;;21.98;3.42;;;;;;;10.23;85.79;100187.84;5069170;28;20063;-58
2024/04/02 03:46:35;;;;;;;15.15;2.97;;;;;;;10.23;86.05;100211.81;5069183;28;20059;-58
2024/04/02 03:49:02;;;;;;;20.67;3.00;;;;;;;10.11;85.98;100218.75;5069249;28;20067;-54
2024/04/02 03:51:28;;;;;;;15.05;2.72;;;;;;;10.15;86.21;100211.47;5068061;28;20053;-57
2024/04/02 03:53:55;;;;;;;13.07;2.85;;;;;;;10.37;86.25;100231.72;5023143;28;20057;-58
2024/04/02 03:56:22;;;;;;;16.30;2.92;;;;;;;10.33;85.95;100220.56;5059509;28;20049;-57
2024/04/02 03:58:48;;;;;;;17.08;3.30;;;;;;;10.21;86.06;100236.91;5035335;28;20071;-56
2024/04/02 04:01:15;;;;;;;18.40;2.97;;;;;;;10.62;84.30;100234.47;5051238;28;20056;-56
2024/04/02 04:03:41;;;;;;;14.15;2.80;;;;;;;10.39;84.18;100234.97;5068460;28;20047;-56
2024/04/02 04:06:08;;;;;;;18.92;3.50;;;;;;;10.23;85.44;100240.16;5045406;28;20056;-58
2024/04/02 04:08:37;;;;;;;23.50;2.67;;;;;;;10.05;85.90;100241.22;5048892;28;20056;-56
2024/04/02 04:11:04;;;;;;;21.67;3.10;;;;;;;10.15;86.96;100241.75;5032126;28;20847;-58
2024/04/02 04:13:30;;;;;;;11.50;2.95;;;;;;;10.30;86.79;100245.16;5031830;28;20041;-58
2024/04/02 04:15:59;;;;;;;19.13;2.42;;;;;;;10.28;85.42;100252.94;5048383;28;20045;-57
2024/04/02 04:18:27;;;;;;;14.73;2.88;;;;;;;10.63;84.85;100268.31;5031414;28;20072;-58
2024/04/02 04:20:56;;;;;;;14.38;2.45;;;;;;;10.46;84.11;100266.38;5048365;28;20128;-57
2024/04/02 04:23:23;;;;;;;19.33;3.17;;;;;;;10.50;84.44;100267.34;5048079;28;20088;-59
2024/04/02 04:25:57;;;;;;;21.85;2.63;;;;;;;10.38;84.81;100263.63;5031723;28;20456;-56
2024/04/02 04:28:24;;;;;;;17.75;3.13;;;;;;;10.54;85.18;100268.34;5037942;28;20048;-57
2024/04/02 04:30:57;;;;;;;16.15;2.63;;;;;;;10.51;83.62;100263.47;5034732;28;20511;-58
2024/04/02 04:33:24;;;;;;;14.73;2.20;;;;;;;10.62;83.51;100264.75;5051925;28;20047;-57
2024/04/02 04:35:51;;;;;;;18.42;3.17;;;;;;;10.57;84.65;100256.66;5066400;28;20058;-56
2024/04/02 04:38:19;;;;;;;17.42;3.25;;;;;;;10.46;84.08;100263.63;5068168;28;20059;-59
2024/04/02 04:40:45;;;;;;;18.90;3.00;;;;;;;10.40;84.58;100264.94;5068381;28;20052;-58
2024/04/02 04:43:15;;;;;;;16.45;2.75;;;;;;;10.55;84.29;100266.41;5068098;28;20056;-58
2024/04/02 04:45:58;;;;;;;13.75;2.50;;;;;;;10.48;84.09;100263.31;5048478;28;20057;-59
2024/04/02 04:48:25;;;;;;;15.70;3.00;;;;;;;10.31;84.63;100260.53;5060787;28;20056;-56
2024/04/02 04:51:02;;;;;;;19.85;2.42;;;;;;;10.35;85.05;100264.25;5067366;28;20468;-53
2024/04/02 04:53:28;;;;;;;18.85;3.03;;;;;;;10.54;84.46;100264.75;5067595;28;20055;-55
2024/04/02 04:56:03;;;;;;;18.63;3.42;;;;;;;10.45;83.90;100266.69;5067645;28;20052;-54
2024/04/02 04:58:29;;;;;;;18.70;2.70;;;;;;;10.55;83.23;100280.94;5030814;28;20150;-56
2024/04/02 05:00:56;;;;;;;18.48;2.78;;;;;;;10.42;83.66;100279.19;5047380;28;20045;-58
2024/04/02 05:03:22;;;;;;;23.15;2.85;;;;;;;10.36;84.19;100285.16;5064556;28;20047;-56
2024/04/02 05:05:49;;;;;;;15.13;3.25;;;;;;;10.30;84.88;100290.03;5033785;28;20052;-55
2024/04/02 05:08:22;;;;;;;24.77;3.05;;;;;;;10.19;84.57;100300.53;5067710;28;20060;-56
2024/04/02 05:10:49;;;;;;;17.33;2.75;;;;;;;10.23;85.25;100308.94;5067309;28;20605;-58
2024/04/02 05:13:16;;;;;;;19.90;3.38;;;;;;;10.35;83.76;100311.06;5067038;28;20036;-61
2024/04/02 05:15:43;;;;;;;16.67;2.78;;;;;;;10.23;84.64;100311.69;5067065;28;20052;-57
2024/04/02 05:18:11;;;;;;;15.63;3.28;;;;;;;10.32;84.85;100311.72;5067112;28;20049;-57
2024/04/02 05:20:37;;;;;;;14.52;2.33;;;;;;;10.38;84.31;100314.00;5066722;28;20048;-56
2024/04/02 05:23:04;;;;;;;25.25;3.28;;;;;;;10.38;84.06;100315.91;5066727;28;20040;-57
2024/04/02 05:25:31;;;;;;;18.13;2.78;;;;;;;10.37;84.44;100322.56;5050426;28;20056;-57
2024/04/02 05:27:57;;;;;;;17.63;2.70;;;;;;;10.17;84.80;100324.81;5029938;28;20064;-57
2024/04/02 05:30:24;;;;;;;16.35;2.78;;;;;;;10.34;84.29;100324.00;5030043;28;20057;-54
2024/04/02 05:32:50;;;;;;;11.48;2.30;;;;;;;10.04;85.25;100322.94;5065566;28;20048;-57
2024/04/02 05:35:17;;;;;;;16.98;3.17;;;;;;;10.15;85.54;100320.72;5049933;28;20526;-55
2024/04/02 05:37:43;;;;;;;14.25;2.50;;;;;;;10.28;85.07;100327.25;5053446;28;20728;-56
2024/04/02 05:40:09;;;;;;;19.08;2.50;;;;;;;10.41;84.35;100324.34;5059930;28;20048;-58
2024/04/02 05:42:36;;;;;;;14.85;2.58;;;;;;;10.39;83.95;100332.13;5049260;28;20045;-56
2024/04/02 05:45:03;;;;;;;18.02;2.42;;;;;;;10.51;83.58;100328.75;5031324;28;20044;-57
2024/04/02 05:47:29;;;;;;;16.02;2.63;;;;;;;10.35;83.18;100325.66;5050164;28;20052;-58
2024/04/02 05:49:55;;;;;;;15.10;3.05;;;;;;;10.18;84.30;100320.13;5032531;28;20063;-58
2024/04/02 05:52:22;;;;;;;16.50;3.33;;;;;;;10.34;83.85;100335.03;5048800;28;20053;-57
2024/04/02 05:54:48;;;;;;;12.57;2.58;;;;;;;10.23;84.13;100336.47;5060697;28;20126;-57
2024/04/02 05:57:15;;;;;;;18.90;2.67;;;;;;;10.12;84.36;100349.72;5046726;28;20072;-55
2024/04/02 05:59:42;;;;;;;15.82;3.55;;;;;;;10.08;85.13;100362.50;5064109;28;20057;-54
2024/04/02 06:02:09;;;;;;;16.73;3.22;;;;;;;10.34;85.01;100359.00;5066047;28;20052;-56
2024/04/02 06:04:36;;;;;;;20.27;2.90;;;;;;;10.35;83.49;100363.38;5066041;28;20048;-55
2024/04/02 06:07:02;;;;;;;20.15;3.22;;;;;;;10.33;83.35;100376.63;5050088;28;20063;-56
2024/04/02 06:09:29;;;;;;;16.08;2.67;;;;;;;10.12;85.04;100379.19;5066543;28;20507;-58
2024/04/02 06:11:55;;;;;;;12.98;2.65;;;;;;;10.15;84.31;100378.53;5052305;28;20052;-56
2024/04/02 06:14:21;;;;;;;14.15;2.22;;;;;;;10.34;84.04;100384.56;5053457;28;20519;-57
2024/04/02 06:16:48;;;;;;;13.23;2.40;;;;;;;10.40;83.13;100388.81;5044318;28;20053;-58
2024/04/02 06:19:18;;;;;;;14.55;2.65;;;;;;;10.27;83.97;100388.94;5048845;28;20048;-56
2024/04/02 06:21:44;;;;;;;16.90;2.47;;;;;;;10.26;84.17;100395.56;5049618;28;20049;-59
2024/04/02 06:24:11;;;;;;;14.50;2.47;;;;;;;10.56;83.34;100381.72;5057171;28;20060;-58
2024/04/02 06:26:37;;;;;;;16.52;2.65;;;;;;;10.61;82.09;100383.50;5067693;28;20045;-56
2024/04/02 06:29:04;;;;;;;22.38;6.40;;;;;;;10.46;82.57;100386.72;5058148;28;20644;-54
2024/04/02 06:31:30;;;;;;;18.95;4.43;;;;;;;10.25;83.41;100385.69;5069061;28;20052;-56
2024/04/02 06:33:57;;;;;;;19.85;2.92;;;;;;;10.28;83.59;100377.63;5069943;28;20052;-55
2024/04/02 06:36:23;;;;;;;14.70;3.55;;;;;;;10.39;83.27;100389.13;5059171;28;20499;-60
2024/04/02 06:38:50;;;;;;;22.63;7.20;;;;;;;10.50;82.66;100383.00;5057109;28;20055;-59
2024/04/02 06:41:16;;;;;;;11.57;2.63;;;;;;;10.50;82.87;100390.44;5057095;28;20061;-55
2024/04/02 06:43:46;;;;;;;10.77;2.40;;;;;;;10.69;82.18;100394.53;5069897;28;20048;-56
2024/04/02 06:46:13;;;;;;;17.92;3.50;;;;;;;10.73;82.04;100391.94;5069696;28;20057;-58
2024/04/02 06:48:42;;;;;;;;;;;;;;;10.72;82.05;100390.34;5065840;28;20731;-58
2024/04/02 06:51:09;;;;;;;10.20;2.35;;;;;;;10.83;81.32;100389.69;5049677;28;19931;-56
2024/04/02 06:53:36;;;;;;;15.50;2.45;;;;;;;11.02;80.42;100383.84;5016258;28;20064;-57
2024/04/02 06:56:04;;;;;;;15.07;2.92;;;;;;;11.00;80.38;100386.16;5084701;28;20067;-56
2024/04/02 06:58:31;;;;;;;14.57;2.78;;;;;;;10.93;80.21;100389.38;5069703;28;20048;-57
2024/04/02 07:00:57;;;;;;;12.90;2.63;;;;;;;10.80;80.40;100390.34;5069043;28;20048;-56
2024/04/02 07:03:23;;;;;;;16.23;2.78;;;;;;;10.84;80.85;100387.75;5049803;28;20052;-57
2024/04/02 07:05:51;;;;;;;16.52;2.90;;;;;;;10.74;80.93;100396.34;5040420;28;20057;-54
2024/04/02 07:08:21;;;;;;;14.02;2.97;;;;;;;10.69;81.10;100391.78;5056409;28;20052;-60
2024/04/02 07:10:59;;;;;;;16.65;3.53;;;;;;;10.84;80.71;100398.78;5043080;28;20135;-57
2024/04/02 07:13:29;;;;;;;13.60;2.38;;;;;;;10.85;81.25;100389.38;5051345;28;20163;-60
2024/04/02 07:15:56;;;;;;;12.52;2.45;;;;;;;10.84;80.85;100396.03;5053783;28;20048;-58
2024/04/02 07:18:22;;;;;;;15.00;2.88;;;;;;;10.93;81.76;100386.63;5051351;28;20056;-61
2024/04/02 07:20:58;;;;;;;22.52;2.80;;;;;;;11.26;84.07;100382.22;5058752;28;20056;-61
2024/04/02 07:23:25;;;;;;;21.88;3.47;;;;;;;11.68;82.53;100382.53;5047732;28;20434;-61
2024/04/02 07:25:51;;;;;;;11.95;2.65;;;;;;;11.77;80.53;100391.59;5050854;28;20045;-62
2024/04/02 07:28:22;;;;;;;13.93;3.05;;;;;;;11.83;79.89;100381.97;5045227;28;20052;-62
2024/04/02 07:30:48;;;;;;;14.27;4.22;;;;;;;12.21;80.29;100383.63;5062616;28;20067;-61
2024/04/02 07:33:15;;;;;;;17.38;3.72;;;;;;;11.94;79.15;100386.00;5063584;28;20089;-64
2024/04/02 07:35:48;;;;;;;20.60;2.88;;;;;;;12.17;78.55;100395.63;5052002;28;20385;-60
2024/04/02 07:38:14;;;;;;;17.20;2.72;;;;;;;12.29;78.44;100391.03;5043203;28;20040;-63
2024/04/02 07:40:41;;;;;;;13.80;2.58;;;;;;;12.51;76.80;100395.47;5029418;28;20053;-62
2024/04/02 07:43:08;;;;;;;13.18;3.10;;;;;;;12.28;74.13;100410.69;5057217;28;20049;-55
2024/04/02 07:45:35;;;;;;;15.13;3.33;;;;;;;11.80;75.74;100402.75;5054047;28;20719;-59
2024/04/02 07:48:05;;;;;;;16.67;3.00;;;;;;;11.89;76.47;100409.06;5052439;28;20061;-58
2024/04/02 07:50:33;;;;;;;13.77;2.92;;;;;;;11.80;75.81;100419.31;5045440;28;20383;-62
2024/04/02 07:52:59;;;;;;;17.77;3.47;;;;;;;11.76;76.03;100406.50;5049448;28;20550;-64
2024/04/02 07:55:26;;;;;;;15.00;2.97;;;;;;;11.69;76.44;100420.81;5068528;28;20062;-65
2024/04/02 07:57:52;;;;;;;22.63;3.63;;;;;;;11.92;76.27;100413.94;5035117;28;20056;-63
2024/04/02 08:00:19;;;;;;;16.27;3.78;;;;;;;12.05;76.34;100414.84;5048875;28;20049;-59
2024/04/02 08:02:49;;;;;;;15.93;3.60;;;;;;;12.26;75.26;100413.78;5045554;28;20765;-61
2024/04/02 08:05:15;;;;;;;15.65;2.65;;;;;;;12.29;74.17;100417.84;5054813;28;20053;-58
2024/04/02 08:07:44;;;;;;;29.70;3.22;;;;;;;12.46;73.42;100426.84;5052553;28;20047;-56
2024/04/02 08:10:12;;;;;;;25.90;3.75;;;;;;;12.36;73.55;100429.19;5048903;28;20066;-60
2024/04/02 08:12:38;;;;;;;19.15;3.40;;;;;;;12.38;73.27;100435.19;5067738;28;20049;-59
2024/04/02 08:15:05;;;;;;;18.83;3.60;;;;;;;12.36;73.22;100446.56;5046925;28;20439;-58
2024/04/02 08:17:32;;;;;;;18.20;3.40;;;;;;;12.16;72.34;100443.72;5031957;28;20045;-60
2024/04/02 08:19:58;;;;;;;21.02;3.58;;;;;;;12.13;74.22;100447.16;5058049;28;20056;-58
2024/04/02 08:22:25;;;;;;;22.40;3.35;;;;;;;12.16;73.56;100444.53;5055086;28;20245;-58
2024/04/02 08:24:54;;;;;;;26.92;4.30;;;;;;;12.28;73.44;100454.88;5040016;28;20068;-58
2024/04/02 08:27:20;;;;;;;24.65;4.10;;;;;;;12.49;73.00;100455.78;5047779;28;20056;-59
2024/04/02 08:29:48;;;;;;;19.33;3.17;;;;;;;12.65;72.89;100451.31;5031404;28;20053;-58
2024/04/02 08:32:15;;;;;;;18.88;3.15;;;;;;;12.56;71.34;100461.59;5047037;28;20057;-58
2024/04/02 08:34:42;;;;;;;18.45;3.78;;;;;;;12.45;72.09;100458.38;5047414;28;20072;-61
2024/04/02 08:37:08;;;;;;;20.42;3.17;;;;;;;12.51;72.35;100470.06;5048221;28;20061;-59
2024/04/02 08:39:35;;;;;;;20.38;3.00;;;;;;;12.70;71.33;100466.88;5051967;28;20113;-56
2024/04/02 08:42:03;;;;;;;15.43;3.58;;;;;;;12.66;72.06;100483.31;5046153;28;20063;-56
2024/04/02 08:44:34;;;;;;;20.48;3.17;;;;;;;12.66;71.84;100480.53;5035254;28;20740;-60
2024/04/02 08:47:00;;;;;;;15.20;3.13;;;;;;;12.93;70.33;100485.63;5051588;28;20060;-60
2024/04/02 08:49:27;;;;;;;20.17;3.20;;;;;;;13.01;70.39;100481.97;5030517;28;20056;-58
2024/04/02 08:51:54;;;;;;;17.85;3.35;;;;;;;13.13;69.45;100479.31;5047697;28;20045;-57
2024/04/02 08:54:21;;;;;;;20.17;2.70;;;;;;;12.80;68.58;100472.00;5047894;28;20040;-59
2024/04/02 08:56:47;;;;;;;22.90;3.72;;;;;;;12.97;68.99;100478.25;5047341;28;20059;-60
2024/04/02 08:59:14;;;;;;;21.95;3.83;;;;;;;13.06;69.03;100484.56;5030680;28;20060;-60
2024/04/02 09:01:42;;;;;;;20.55;3.90;;;;;;;13.55;67.16;100488.44;5057581;28;20055;-60
2024/04/02 09:04:12;;;;;;;21.55;3.67;;;;;;;13.40;66.94;100502.88;5058519;28;20049;-59
2024/04/02 09:06:39;;;;;;;18.38;3.70;;;;;;;13.26;67.26;100510.63;5061314;28;20434;-61
2024/04/02 09:09:05;;;;;;;24.23;3.53;;;;;;;13.32;66.76;100509.28;5057137;28;20057;-57
2024/04/02 09:11:32;;;;;;;18.90;3.28;;;;;;;13.21;66.19;100502.53;5059899;28;20737;-56
2024/04/02 09:14:00;;;;;;;19.70;4.45;;;;;;;13.41;66.36;100502.53;5047027;28;20587;-56
2024/04/02 09:16:31;;;;;;;21.25;3.38;;;;;;;13.63;65.67;100509.69;5046943;28;20056;-58
2024/04/02 09:19:01;;;;;;;18.13;3.35;;;;;;;13.39;64.80;100510.38;5046518;28;20057;-59
2024/04/02 09:21:27;;;;;;;17.83;3.40;;;;;;;13.60;65.11;100515.88;5050200;28;20075;-59
2024/04/02 09:23:54;;;;;;;20.40;3.80;;;;;;;13.70;63.95;100526.56;5060565;28;20431;-57
2024/04/02 09:26:22;;;;;;;24.02;3.53;;;;;;;13.62;64.20;100518.31;5055754;28;20052;-59
2024/04/02 09:28:50;;;;;;;15.77;3.10;;;;;;;13.56;65.15;100517.75;5055435;28;20664;-59
2024/04/02 09:31:17;;;;;;;16.83;3.63;;;;;;;13.83;63.91;100517.16;5064178;28;20048;-60
2024/04/02 09:33:49;;;;;;;19.38;3.55;;;;;;;14.00;62.75;100521.75;5054206;28;20048;-59
2024/04/02 09:36:34;;;;;;;19.60;3.28;;;;;;;13.99;63.36;100528.41;5078504;28;20091;-60
2024/04/02 09:39:04;;;;;;;19.02;3.40;;;;;;;13.96;63.33;100523.56;5060172;28;20598;-58
2024/04/02 09:41:39;;;;;;;18.52;3.25;;;;;;;14.06;63.50;100528.66;5030920;28;20551;-60
2024/04/02 09:44:12;;;;;;;20.70;3.42;;;;;;;14.21;63.12;100528.81;5039403;28;20064;-60
2024/04/02 09:46:40;;;;;;;21.30;3.55;;;;;;;14.15;63.33;100521.91;5033239;28;20053;-59
2024/04/02 09:49:07;;;;;;;19.27;3.63;;;;;;;14.08;63.31;100520.84;5035735;28;20059;-60
2024/04/02 09:51:34;;;;;;;24.63;3.33;;;;;;;14.40;62.16;100520.03;5054674;28;20049;-61
2024/04/02 09:54:05;;;;;;;18.33;2.90;;;;;;;14.25;63.18;100535.31;5057336;28;20057;-59
2024/04/02 09:56:33;;;;;;;18.88;3.05;;;;;;;14.32;62.34;100524.50;5046682;28;20060;-58
2024/04/02 09:59:04;;;;;;;20.25;2.85;;;;;;;14.15;62.86;100532.16;5046667;28;20049;-63
2024/04/02 10:01:33;;;;;;;22.35;3.20;;;;;;;14.31;62.25;100517.34;5059988;28;20053;-64
2024/04/02 10:04:03;;;;;;;33.95;3.90;;;;;;;14.21;62.00;100522.50;5033244;28;20048;-65
2024/04/02 10:06:32;;;;;;;17.27;3.33;;;;;;;14.53;61.72;100513.34;5035586;28;20049;-65
2024/04/02 10:08:59;;;;;;;19.65;2.83;;;;;;;14.59;62.35;100523.84;5036133;28;20052;-65
2024/04/02 10:11:39;;;;;;;16.90;2.78;;;;;;;14.39;59.75;100533.06;5050051;28;20430;-64
2024/04/02 10:14:10;;;;;;;64.90;27.98;;;;;;;14.36;61.15;100528.22;5047713;28;20056;-65
2024/04/02 10:16:41;;;;;;;35.67;12.98;;;;;;;14.49;60.75;100515.19;5063051;28;20715;-65
2024/04/02 10:19:12;;;;;;;74.15;29.35;;;;;;;14.72;60.62;100524.69;5063352;28;20064;-63
2024/04/02 10:21:41;;;;;;;18.90;4.28;;;;;;;14.93;59.91;100525.38;5029442;28;20053;-63
2024/04/02 10:24:11;;;;;;;20.35;3.08;;;;;;;14.80;59.17;100520.19;5017252;28;20055;-62
2024/04/02 10:26:38;;;;;;;14.52;3.22;;;;;;;14.93;58.73;100514.28;5043869;28;20048;-64
2024/04/02 10:29:05;;;;;;;17.05;2.90;;;;;;;15.58;56.87;100521.50;5028408;28;20057;-64
2024/04/02 10:31:39;;;;;;;17.13;3.50;;;;;;;15.58;56.46;100514.00;5045336;28;20053;-64
2024/04/02 10:34:08;;;;;;;20.23;2.70;;;;;;;15.39;57.13;100508.22;5033656;28;20048;-65
2024/04/02 10:36:35;;;;;;;13.02;3.60;;;;;;;15.37;56.93;100513.31;5064799;28;20044;-62
2024/04/02 10:39:03;;;;;;;21.08;4.30;;;;;;;15.63;56.43;100518.47;5043986;28;20065;-59
2024/04/02 10:41:30;;;;;;;25.85;9.07;;;;;;;15.74;57.32;100517.63;5033328;28;20044;-56
2024/04/02 10:43:57;;;;;;;18.50;4.95;;;;;;;15.86;56.49;100511.22;5028789;28;20056;-58
2024/04/02 10:46:25;;;;;;;20.40;3.20;;;;;;;15.83;56.42;100511.13;5029270;28;20068;-62
2024/04/02 10:48:55;;;;;;;14.80;3.92;;;;;;;15.77;56.40;100508.59;5062425;28;20063;-67
2024/04/02 10:51:21;;;;;;;9.77;2.78;;;;;;;15.81;55.32;100508.72;5050446;28;20052;-66
2024/04/02 10:53:47;;;;;;;13.30;2.45;;;;;;;15.61;56.54;100502.19;5053176;28;20498;-65
2024/04/02 10:56:14;;;;;;;11.75;2.33;;;;;;;15.82;56.12;100506.72;5060908;28;20139;-66
2024/04/02 10:58:42;;;;;;;15.98;2.78;;;;;;;15.87;56.18;100515.59;5054868;28;20126;-66
2024/04/02 11:01:09;;;;;;;12.63;2.65;;;;;;;15.77;56.54;100511.38;5029713;28;20507;-64
2024/04/02 11:03:35;;;;;;;16.85;2.80;;;;;;;15.94;56.54;100504.69;5028996;28;20488;-64
2024/04/02 11:06:03;;;;;;;14.27;3.17;;;;;;;15.59;56.11;100489.78;5043763;28;20056;-65
2024/04/02 11:08:30;;;;;;;13.80;2.60;;;;;;;15.60;56.85;100485.88;5075690;28;20044;-65
2024/04/02 11:10:56;;;;;;;9.95;2.25;;;;;;;15.79;56.29;100502.69;5043208;28;20052;-65
2024/04/02 11:13:26;;;;;;;9.55;2.05;;;;;;;15.67;56.51;100500.75;5070055;28;20067;-65
2024/04/02 11:15:52;;;;;;;11.07;1.98;;;;;;;15.79;55.95;100499.91;5063343;28;20056;-65
2024/04/02 11:18:22;;;;;;;14.32;3.00;;;;;;;16.04;55.55;100495.06;5039263;28;20045;-64